sensor_id;sensor_type;location;lat;lon;timestamp;temperature;humidity
324;DHT22;149;51.094;17.002;2023-05-10T00:01:24;9.60;99.90
324;DHT22;149;51.094;17.002;2023-05-10T00:03:51;9.50;99.90
324;DHT22;149;51.094;17.002;2023-05-10T00:06:18;9.50;99.90
324;DHT22;149;51.094;17.002;2023-05-10T00:08:45;9.60;99.90
324;DHT22;149;51.094;17.002;2023-05-10T00:11:12;9.40;99.90
324;DHT22;149;51.094;17.002;2023-05-10T00:13:38;9.40;99.90
324;DHT22;149;51.094;17.002;2023-05-10T00:16:06;9.30;99.90
324;DHT22;149;51.094;17.002;2023-05-10T00:18:33;9.30;99.90
324;DHT22;149;51.094;17.002;2023-05-10T00:21:00;9.30;99.90
324;DHT22;149;51.094;17.002;2023-05-10T00:23:27;9.30;99.90
324;DHT22;149;51.094;17.002;2023-05-10T00:25:55;9.30;99.90
324;DHT22;149;51.094;17.002;2023-05-10T00:28:22;9.40;99.90
324;DHT22;149;51.094;17.002;2023-05-10T00:30:49;9.40;99.90
324;DHT22;149;51.094;17.002;2023-05-10T00:33:16;9.30;99.90
324;DHT22;149;51.094;17.002;2023-05-10T00:35:45;9.30;99.90
324;DHT22;149;51.094;17.002;2023-05-10T00:38:12;9.20;99.90
324;DHT22;149;51.094;17.002;2023-05-10T00:40:39;9.20;99.90
324;DHT22;149;51.094;17.002;2023-05-10T00:43:06;9.10;99.90
324;DHT22;149;51.094;17.002;2023-05-10T00:45:35;9.00;99.90
324;DHT22;149;51.094;17.002;2023-05-10T00:48:03;9.00;99.90
324;DHT22;149;51.094;17.002;2023-05-10T00:50:31;9.00;99.90
324;DHT22;149;51.094;17.002;2023-05-10T00:52:59;8.90;99.90
324;DHT22;149;51.094;17.002;2023-05-10T00:55:27;8.90;99.90
324;DHT22;149;51.094;17.002;2023-05-10T00:57:54;8.90;99.90
324;DHT22;149;51.094;17.002;2023-05-10T01:00:24;8.90;99.90
324;DHT22;149;51.094;17.002;2023-05-10T01:02:53;8.90;99.90
324;DHT22;149;51.094;17.002;2023-05-10T01:05:21;8.80;99.90
324;DHT22;149;51.094;17.002;2023-05-10T01:07:48;8.60;99.90
324;DHT22;149;51.094;17.002;2023-05-10T01:10:15;8.60;99.90
324;DHT22;149;51.094;17.002;2023-05-10T01:12:46;8.60;99.90
324;DHT22;149;51.094;17.002;2023-05-10T01:15:14;8.60;99.90
324;DHT22;149;51.094;17.002;2023-05-10T01:17:44;8.50;99.90
324;DHT22;149;51.094;17.002;2023-05-10T01:20:12;8.50;99.90
324;DHT22;149;51.094;17.002;2023-05-10T01:25:50;8.50;99.90
324;DHT22;149;51.094;17.002;2023-05-10T01:31:33;8.30;99.90
324;DHT22;149;51.094;17.002;2023-05-10T01:34:09;8.30;99.90
324;DHT22;149;51.094;17.002;2023-05-10T01:37:06;8.30;99.90
324;DHT22;149;51.094;17.002;2023-05-10T01:39:49;8.30;99.90
324;DHT22;149;51.094;17.002;2023-05-10T01:42:24;8.30;99.90
324;DHT22;149;51.094;17.002;2023-05-10T01:45:07;8.20;99.90
324;DHT22;149;51.094;17.002;2023-05-10T01:47:58;8.20;99.90
324;DHT22;149;51.094;17.002;2023-05-10T01:50:30;8.20;99.90
324;DHT22;149;51.094;17.002;2023-05-10T01:52:59;8.10;99.90
324;DHT22;149;51.094;17.002;2023-05-10T01:55:29;8.20;99.90
324;DHT22;149;51.094;17.002;2023-05-10T01:58:06;8.20;99.90
324;DHT22;149;51.094;17.002;2023-05-10T02:00:35;8.20;99.90
324;DHT22;149;51.094;17.002;2023-05-10T02:03:06;8.20;99.90
324;DHT22;149;51.094;17.002;2023-05-10T02:05:35;8.30;99.90
324;DHT22;149;51.094;17.002;2023-05-10T02:08:06;8.40;99.90
324;DHT22;149;51.094;17.002;2023-05-10T02:10:37;8.30;99.90
324;DHT22;149;51.094;17.002;2023-05-10T02:13:05;8.20;99.90
324;DHT22;149;51.094;17.002;2023-05-10T02:15:35;8.20;99.90
324;DHT22;149;51.094;17.002;2023-05-10T02:18:04;8.20;99.90
324;DHT22;149;51.094;17.002;2023-05-10T02:20:33;8.10;99.90
324;DHT22;149;51.094;17.002;2023-05-10T02:23:03;8.00;99.90
324;DHT22;149;51.094;17.002;2023-05-10T02:25:33;8.10;99.90
324;DHT22;149;51.094;17.002;2023-05-10T02:28:03;8.10;99.90
324;DHT22;149;51.094;17.002;2023-05-10T02:30:32;8.00;99.90
324;DHT22;149;51.094;17.002;2023-05-10T02:33:01;8.00;99.90
324;DHT22;149;51.094;17.002;2023-05-10T02:35:29;7.90;99.90
324;DHT22;149;51.094;17.002;2023-05-10T02:37:58;7.90;99.90
324;DHT22;149;51.094;17.002;2023-05-10T02:40:27;7.90;99.90
324;DHT22;149;51.094;17.002;2023-05-10T02:42:55;7.90;99.90
324;DHT22;149;51.094;17.002;2023-05-10T02:45:29;8.00;99.90
324;DHT22;149;51.094;17.002;2023-05-10T02:47:58;8.00;99.90
324;DHT22;149;51.094;17.002;2023-05-10T02:50:28;7.90;99.90
324;DHT22;149;51.094;17.002;2023-05-10T02:53:00;7.90;99.90
324;DHT22;149;51.094;17.002;2023-05-10T02:55:33;7.80;99.90
324;DHT22;149;51.094;17.002;2023-05-10T02:58:03;7.90;99.90
324;DHT22;149;51.094;17.002;2023-05-10T03:00:30;7.90;99.90
324;DHT22;149;51.094;17.002;2023-05-10T03:02:57;7.90;99.90
324;DHT22;149;51.094;17.002;2023-05-10T03:05:25;7.80;99.90
324;DHT22;149;51.094;17.002;2023-05-10T03:07:52;7.80;99.90
324;DHT22;149;51.094;17.002;2023-05-10T03:10:23;7.90;99.90
324;DHT22;149;51.094;17.002;2023-05-10T03:13:10;7.90;99.90
324;DHT22;149;51.094;17.002;2023-05-10T03:18:28;7.90;99.90
324;DHT22;149;51.094;17.002;2023-05-10T03:20:59;7.90;99.90
324;DHT22;149;51.094;17.002;2023-05-10T03:26:02;7.90;99.90
324;DHT22;149;51.094;17.002;2023-05-10T03:28:31;7.90;99.90
324;DHT22;149;51.094;17.002;2023-05-10T03:31:02;7.90;99.90
324;DHT22;149;51.094;17.002;2023-05-10T03:33:32;7.90;99.90
324;DHT22;149;51.094;17.002;2023-05-10T03:35:59;8.00;99.90
324;DHT22;149;51.094;17.002;2023-05-10T03:38:26;7.90;99.90
324;DHT22;149;51.094;17.002;2023-05-10T03:40:56;8.00;99.90
324;DHT22;149;51.094;17.002;2023-05-10T03:43:23;8.10;99.90
324;DHT22;149;51.094;17.002;2023-05-10T03:45:50;8.20;99.90
324;DHT22;149;51.094;17.002;2023-05-10T03:48:18;8.40;99.90
324;DHT22;149;51.094;17.002;2023-05-10T03:50:45;8.40;99.90
324;DHT22;149;51.094;17.002;2023-05-10T03:53:13;8.40;99.90
324;DHT22;149;51.094;17.002;2023-05-10T03:55:39;8.50;99.90
324;DHT22;149;51.094;17.002;2023-05-10T03:58:06;8.50;99.90
324;DHT22;149;51.094;17.002;2023-05-10T04:00:36;8.50;99.90
324;DHT22;149;51.094;17.002;2023-05-10T04:03:04;8.60;99.90
324;DHT22;149;51.094;17.002;2023-05-10T04:05:31;8.70;99.90
324;DHT22;149;51.094;17.002;2023-05-10T04:07:59;8.70;99.90
324;DHT22;149;51.094;17.002;2023-05-10T04:10:26;8.80;99.90
324;DHT22;149;51.094;17.002;2023-05-10T04:12:52;8.90;99.90
324;DHT22;149;51.094;17.002;2023-05-10T04:15:20;9.00;99.90
324;DHT22;149;51.094;17.002;2023-05-10T04:17:47;9.20;99.90
324;DHT22;149;51.094;17.002;2023-05-10T04:20:14;9.30;99.90
324;DHT22;149;51.094;17.002;2023-05-10T04:22:41;9.40;99.90
324;DHT22;149;51.094;17.002;2023-05-10T04:25:09;9.40;99.90
324;DHT22;149;51.094;17.002;2023-05-10T04:27:36;9.50;99.90
324;DHT22;149;51.094;17.002;2023-05-10T04:30:03;9.50;99.90
324;DHT22;149;51.094;17.002;2023-05-10T04:32:30;9.70;99.90
324;DHT22;149;51.094;17.002;2023-05-10T04:34:58;9.70;99.90
324;DHT22;149;51.094;17.002;2023-05-10T04:37:25;9.80;99.90
324;DHT22;149;51.094;17.002;2023-05-10T04:39:52;9.90;99.90
324;DHT22;149;51.094;17.002;2023-05-10T04:42:19;10.00;99.90
324;DHT22;149;51.094;17.002;2023-05-10T04:44:46;10.00;99.90
324;DHT22;149;51.094;17.002;2023-05-10T04:47:12;10.10;99.90
324;DHT22;149;51.094;17.002;2023-05-10T04:49:40;10.10;99.90
324;DHT22;149;51.094;17.002;2023-05-10T04:52:07;10.20;99.90
324;DHT22;149;51.094;17.002;2023-05-10T04:54:34;10.30;99.90
324;DHT22;149;51.094;17.002;2023-05-10T04:57:03;10.40;99.90
324;DHT22;149;51.094;17.002;2023-05-10T04:59:30;10.50;99.90
324;DHT22;149;51.094;17.002;2023-05-10T05:01:57;10.60;99.90
324;DHT22;149;51.094;17.002;2023-05-10T05:04:24;10.70;99.90
324;DHT22;149;51.094;17.002;2023-05-10T05:06:52;10.70;99.90
324;DHT22;149;51.094;17.002;2023-05-10T05:09:19;10.70;99.90
324;DHT22;149;51.094;17.002;2023-05-10T05:11:46;10.80;99.90
324;DHT22;149;51.094;17.002;2023-05-10T05:14:13;10.80;99.90
324;DHT22;149;51.094;17.002;2023-05-10T05:16:40;10.90;99.90
324;DHT22;149;51.094;17.002;2023-05-10T05:19:08;11.10;99.90
324;DHT22;149;51.094;17.002;2023-05-10T05:21:34;11.00;99.90
324;DHT22;149;51.094;17.002;2023-05-10T05:24:02;11.20;99.90
324;DHT22;149;51.094;17.002;2023-05-10T05:26:28;11.30;99.90
324;DHT22;149;51.094;17.002;2023-05-10T05:28:56;11.50;99.90
324;DHT22;149;51.094;17.002;2023-05-10T05:31:22;11.50;99.90
324;DHT22;149;51.094;17.002;2023-05-10T05:33:49;11.60;99.90
324;DHT22;149;51.094;17.002;2023-05-10T05:36:16;11.80;99.90
324;DHT22;149;51.094;17.002;2023-05-10T05:38:43;11.90;99.90
324;DHT22;149;51.094;17.002;2023-05-10T05:41:11;12.10;99.90
324;DHT22;149;51.094;17.002;2023-05-10T05:43:38;12.10;99.90
324;DHT22;149;51.094;17.002;2023-05-10T05:46:05;12.10;99.90
324;DHT22;149;51.094;17.002;2023-05-10T05:48:32;12.10;99.90
324;DHT22;149;51.094;17.002;2023-05-10T05:50:59;12.20;99.90
324;DHT22;149;51.094;17.002;2023-05-10T05:53:26;12.30;99.90
324;DHT22;149;51.094;17.002;2023-05-10T05:55:56;12.40;99.90
324;DHT22;149;51.094;17.002;2023-05-10T05:58:25;12.50;99.90
324;DHT22;149;51.094;17.002;2023-05-10T06:00:51;12.70;99.90
324;DHT22;149;51.094;17.002;2023-05-10T06:03:19;13.00;99.90
324;DHT22;149;51.094;17.002;2023-05-10T06:05:46;13.00;99.90
324;DHT22;149;51.094;17.002;2023-05-10T06:08:13;13.20;99.90
324;DHT22;149;51.094;17.002;2023-05-10T06:10:40;13.20;99.90
324;DHT22;149;51.094;17.002;2023-05-10T06:13:07;13.30;99.90
324;DHT22;149;51.094;17.002;2023-05-10T06:15:34;13.60;99.90
324;DHT22;149;51.094;17.002;2023-05-10T06:18:01;13.90;99.90
324;DHT22;149;51.094;17.002;2023-05-10T06:20:28;14.30;99.90
324;DHT22;149;51.094;17.002;2023-05-10T06:22:55;14.50;99.90
324;DHT22;149;51.094;17.002;2023-05-10T06:25:22;14.80;99.90
324;DHT22;149;51.094;17.002;2023-05-10T06:27:49;15.20;99.90
324;DHT22;149;51.094;17.002;2023-05-10T06:30:19;15.20;99.90
324;DHT22;149;51.094;17.002;2023-05-10T06:32:46;15.30;99.90
324;DHT22;149;51.094;17.002;2023-05-10T06:35:14;15.50;99.90
324;DHT22;149;51.094;17.002;2023-05-10T06:37:41;15.90;99.90
324;DHT22;149;51.094;17.002;2023-05-10T06:40:08;15.90;99.90
324;DHT22;149;51.094;17.002;2023-05-10T06:42:36;16.00;99.90
324;DHT22;149;51.094;17.002;2023-05-10T06:45:03;15.80;99.90
324;DHT22;149;51.094;17.002;2023-05-10T06:47:30;16.00;99.90
324;DHT22;149;51.094;17.002;2023-05-10T06:49:57;16.60;99.90
324;DHT22;149;51.094;17.002;2023-05-10T06:52:23;17.40;99.90
324;DHT22;149;51.094;17.002;2023-05-10T06:54:51;17.80;99.90
324;DHT22;149;51.094;17.002;2023-05-10T06:57:17;18.00;99.90
324;DHT22;149;51.094;17.002;2023-05-10T06:59:57;18.10;99.90
324;DHT22;149;51.094;17.002;2023-05-10T07:02:24;19.00;99.90
324;DHT22;149;51.094;17.002;2023-05-10T07:04:52;19.90;99.90
324;DHT22;149;51.094;17.002;2023-05-10T07:07:19;20.40;99.90
324;DHT22;149;51.094;17.002;2023-05-10T07:09:46;21.10;99.90
324;DHT22;149;51.094;17.002;2023-05-10T07:12:13;22.00;98.40
324;DHT22;149;51.094;17.002;2023-05-10T07:14:41;22.90;96.00
324;DHT22;149;51.094;17.002;2023-05-10T07:17:09;22.70;94.10
324;DHT22;149;51.094;17.002;2023-05-10T07:19:36;22.40;94.00
324;DHT22;149;51.094;17.002;2023-05-10T07:22:03;22.60;93.90
324;DHT22;149;51.094;17.002;2023-05-10T07:24:31;23.10;93.00
324;DHT22;149;51.094;17.002;2023-05-10T07:26:59;24.90;87.50
324;DHT22;149;51.094;17.002;2023-05-10T07:29:26;24.80;80.60
324;DHT22;149;51.094;17.002;2023-05-10T07:31:53;23.90;84.50
324;DHT22;149;51.094;17.002;2023-05-10T07:34:24;24.80;81.50
324;DHT22;149;51.094;17.002;2023-05-10T07:36:51;25.30;77.40
324;DHT22;149;51.094;17.002;2023-05-10T07:39:19;24.40;78.40
324;DHT22;149;51.094;17.002;2023-05-10T07:41:54;24.30;79.90
324;DHT22;149;51.094;17.002;2023-05-10T07:44:22;24.20;81.00
324;DHT22;149;51.094;17.002;2023-05-10T07:46:49;24.90;78.30
324;DHT22;149;51.094;17.002;2023-05-10T07:49:16;24.60;76.50
324;DHT22;149;51.094;17.002;2023-05-10T07:51:43;25.20;75.30
324;DHT22;149;51.094;17.002;2023-05-10T07:54:10;25.60;74.80
324;DHT22;149;51.094;17.002;2023-05-10T07:56:37;25.60;76.30
324;DHT22;149;51.094;17.002;2023-05-10T07:59:04;25.80;72.50
324;DHT22;149;51.094;17.002;2023-05-10T08:01:34;24.80;75.90
324;DHT22;149;51.094;17.002;2023-05-10T08:04:02;25.90;74.00
324;DHT22;149;51.094;17.002;2023-05-10T08:06:29;26.40;72.80
324;DHT22;149;51.094;17.002;2023-05-10T08:08:57;26.60;70.70
324;DHT22;149;51.094;17.002;2023-05-10T08:11:24;27.50;68.40
324;DHT22;149;51.094;17.002;2023-05-10T08:13:51;26.90;69.40
324;DHT22;149;51.094;17.002;2023-05-10T08:16:18;26.90;67.70
324;DHT22;149;51.094;17.002;2023-05-10T08:18:46;26.60;68.00
324;DHT22;149;51.094;17.002;2023-05-10T08:21:14;25.90;69.80
324;DHT22;149;51.094;17.002;2023-05-10T08:23:42;26.20;70.50
324;DHT22;149;51.094;17.002;2023-05-10T08:26:10;27.00;67.90
324;DHT22;149;51.094;17.002;2023-05-10T08:28:38;26.90;68.10
324;DHT22;149;51.094;17.002;2023-05-10T08:31:04;27.60;66.40
324;DHT22;149;51.094;17.002;2023-05-10T08:33:32;28.10;63.90
324;DHT22;149;51.094;17.002;2023-05-10T08:35:59;27.70;65.00
324;DHT22;149;51.094;17.002;2023-05-10T08:38:27;26.30;68.10
324;DHT22;149;51.094;17.002;2023-05-10T08:40:55;25.60;70.00
324;DHT22;149;51.094;17.002;2023-05-10T08:43:27;25.80;71.90
324;DHT22;149;51.094;17.002;2023-05-10T08:46:00;25.70;71.00
324;DHT22;149;51.094;17.002;2023-05-10T08:48:29;27.70;68.60
324;DHT22;149;51.094;17.002;2023-05-10T08:50:59;27.60;65.00
324;DHT22;149;51.094;17.002;2023-05-10T08:53:29;27.40;65.20
324;DHT22;149;51.094;17.002;2023-05-10T08:55:57;27.10;65.30
324;DHT22;149;51.094;17.002;2023-05-10T08:58:25;26.60;66.60
324;DHT22;149;51.094;17.002;2023-05-10T09:00:52;27.30;65.70
324;DHT22;149;51.094;17.002;2023-05-10T09:03:19;27.00;66.30
324;DHT22;149;51.094;17.002;2023-05-10T09:05:46;28.10;65.00
324;DHT22;149;51.094;17.002;2023-05-10T09:08:15;27.50;66.10
324;DHT22;149;51.094;17.002;2023-05-10T09:10:45;28.20;63.80
324;DHT22;149;51.094;17.002;2023-05-10T09:13:14;27.40;64.00
324;DHT22;149;51.094;17.002;2023-05-10T09:15:43;27.60;64.50
324;DHT22;149;51.094;17.002;2023-05-10T09:18:10;26.20;67.10
324;DHT22;149;51.094;17.002;2023-05-10T09:20:38;25.80;68.80
324;DHT22;149;51.094;17.002;2023-05-10T09:23:05;25.50;71.10
324;DHT22;149;51.094;17.002;2023-05-10T09:25:35;25.60;71.30
324;DHT22;149;51.094;17.002;2023-05-10T09:28:02;24.70;72.70
324;DHT22;149;51.094;17.002;2023-05-10T09:30:32;23.20;79.40
324;DHT22;149;51.094;17.002;2023-05-10T09:33:00;22.00;90.90
324;DHT22;149;51.094;17.002;2023-05-10T09:35:29;21.50;93.70
324;DHT22;149;51.094;17.002;2023-05-10T09:37:59;20.80;96.80
324;DHT22;149;51.094;17.002;2023-05-10T09:40:28;20.60;98.40
324;DHT22;149;51.094;17.002;2023-05-10T09:42:57;20.40;99.90
324;DHT22;149;51.094;17.002;2023-05-10T09:45:26;20.80;99.90
324;DHT22;149;51.094;17.002;2023-05-10T09:47:54;20.90;99.90
324;DHT22;149;51.094;17.002;2023-05-10T09:50:22;20.60;99.90
324;DHT22;149;51.094;17.002;2023-05-10T09:52:53;20.50;99.90
324;DHT22;149;51.094;17.002;2023-05-10T09:55:26;20.10;99.90
324;DHT22;149;51.094;17.002;2023-05-10T09:58:00;20.20;99.90
324;DHT22;149;51.094;17.002;2023-05-10T10:00:28;20.30;99.90
324;DHT22;149;51.094;17.002;2023-05-10T10:02:59;20.30;99.90
324;DHT22;149;51.094;17.002;2023-05-10T10:05:30;20.50;99.90
324;DHT22;149;51.094;17.002;2023-05-10T10:07:58;20.70;99.90
324;DHT22;149;51.094;17.002;2023-05-10T10:10:26;20.80;99.90
324;DHT22;149;51.094;17.002;2023-05-10T10:12:54;20.70;99.90
324;DHT22;149;51.094;17.002;2023-05-10T10:15:23;20.70;99.90
324;DHT22;149;51.094;17.002;2023-05-10T10:17:51;20.60;99.90
324;DHT22;149;51.094;17.002;2023-05-10T10:20:19;20.40;99.90
324;DHT22;149;51.094;17.002;2023-05-10T10:22:47;20.20;99.90
324;DHT22;149;51.094;17.002;2023-05-10T10:25:16;20.30;99.90
324;DHT22;149;51.094;17.002;2023-05-10T10:30:40;20.40;99.90
324;DHT22;149;51.094;17.002;2023-05-10T10:33:36;20.50;99.90
324;DHT22;149;51.094;17.002;2023-05-10T10:36:07;20.80;99.90
324;DHT22;149;51.094;17.002;2023-05-10T10:38:54;20.90;99.90
324;DHT22;149;51.094;17.002;2023-05-10T10:41:40;20.60;99.90
324;DHT22;149;51.094;17.002;2023-05-10T10:47:06;20.20;99.90
324;DHT22;149;51.094;17.002;2023-05-10T10:49:44;20.50;99.90
324;DHT22;149;51.094;17.002;2023-05-10T10:52:23;20.50;99.90
324;DHT22;149;51.094;17.002;2023-05-10T11:03:06;20.50;99.90
324;DHT22;149;51.094;17.002;2023-05-10T11:05:43;20.60;99.90
324;DHT22;149;51.094;17.002;2023-05-10T11:08:28;20.60;99.90
324;DHT22;149;51.094;17.002;2023-05-10T11:13:41;20.80;99.90
324;DHT22;149;51.094;17.002;2023-05-10T11:18:40;20.80;99.90
324;DHT22;149;51.094;17.002;2023-05-10T11:21:09;20.90;99.90
324;DHT22;149;51.094;17.002;2023-05-10T11:26:09;21.00;99.90
324;DHT22;149;51.094;17.002;2023-05-10T11:28:48;20.80;99.90
324;DHT22;149;51.094;17.002;2023-05-10T11:31:19;20.90;99.90
324;DHT22;149;51.094;17.002;2023-05-10T11:33:51;20.80;99.90
324;DHT22;149;51.094;17.002;2023-05-10T11:36:29;21.10;99.90
324;DHT22;149;51.094;17.002;2023-05-10T11:38:56;21.10;99.90
324;DHT22;149;51.094;17.002;2023-05-10T11:41:24;21.00;99.90
324;DHT22;149;51.094;17.002;2023-05-10T11:43:55;21.00;99.90
324;DHT22;149;51.094;17.002;2023-05-10T11:46:27;21.30;99.90
324;DHT22;149;51.094;17.002;2023-05-10T11:48:59;21.30;99.90
324;DHT22;149;51.094;17.002;2023-05-10T11:51:35;21.20;99.80
324;DHT22;149;51.094;17.002;2023-05-10T11:54:10;21.30;99.90
324;DHT22;149;51.094;17.002;2023-05-10T11:56:39;21.50;99.90
324;DHT22;149;51.094;17.002;2023-05-10T11:59:06;21.90;98.40
324;DHT22;149;51.094;17.002;2023-05-10T12:01:35;21.80;98.90
324;DHT22;149;51.094;17.002;2023-05-10T12:04:02;21.80;97.80
324;DHT22;149;51.094;17.002;2023-05-10T12:06:31;21.80;98.20
324;DHT22;149;51.094;17.002;2023-05-10T12:08:59;22.00;97.00
324;DHT22;149;51.094;17.002;2023-05-10T12:11:27;22.00;96.40
324;DHT22;149;51.094;17.002;2023-05-10T12:13:55;22.00;97.20
324;DHT22;149;51.094;17.002;2023-05-10T12:16:25;21.80;97.60
324;DHT22;149;51.094;17.002;2023-05-10T12:18:53;21.60;97.90
324;DHT22;149;51.094;17.002;2023-05-10T12:21:21;21.60;98.00
324;DHT22;149;51.094;17.002;2023-05-10T12:23:52;22.00;98.10
324;DHT22;149;51.094;17.002;2023-05-10T12:26:23;21.90;96.70
324;DHT22;149;51.094;17.002;2023-05-10T12:28:51;21.80;97.10
324;DHT22;149;51.094;17.002;2023-05-10T12:31:18;22.00;97.60
324;DHT22;149;51.094;17.002;2023-05-10T12:33:46;22.30;96.80
324;DHT22;149;51.094;17.002;2023-05-10T12:36:14;22.20;96.20
324;DHT22;149;51.094;17.002;2023-05-10T12:38:46;22.00;95.60
324;DHT22;149;51.094;17.002;2023-05-10T12:41:18;21.80;95.70
324;DHT22;149;51.094;17.002;2023-05-10T12:43:45;22.00;96.50
324;DHT22;149;51.094;17.002;2023-05-10T12:46:15;22.40;95.70
324;DHT22;149;51.094;17.002;2023-05-10T12:48:44;22.30;95.00
324;DHT22;149;51.094;17.002;2023-05-10T12:51:11;22.20;95.20
324;DHT22;149;51.094;17.002;2023-05-10T12:53:43;22.00;95.20
324;DHT22;149;51.094;17.002;2023-05-10T12:56:15;21.70;95.20
324;DHT22;149;51.094;17.002;2023-05-10T12:58:41;21.60;96.00
324;DHT22;149;51.094;17.002;2023-05-10T13:01:08;22.00;95.30
324;DHT22;149;51.094;17.002;2023-05-10T13:03:36;22.00;96.00
324;DHT22;149;51.094;17.002;2023-05-10T13:06:03;21.90;95.80
324;DHT22;149;51.094;17.002;2023-05-10T13:08:30;21.80;95.70
324;DHT22;149;51.094;17.002;2023-05-10T13:11:01;22.00;94.20
324;DHT22;149;51.094;17.002;2023-05-10T13:13:28;22.00;95.40
324;DHT22;149;51.094;17.002;2023-05-10T13:15:55;22.10;94.40
324;DHT22;149;51.094;17.002;2023-05-10T13:18:22;22.10;96.00
324;DHT22;149;51.094;17.002;2023-05-10T13:20:49;21.90;95.20
324;DHT22;149;51.094;17.002;2023-05-10T13:23:16;22.00;95.30
324;DHT22;149;51.094;17.002;2023-05-10T13:25:42;21.70;95.60
324;DHT22;149;51.094;17.002;2023-05-10T13:28:10;21.70;95.80
324;DHT22;149;51.094;17.002;2023-05-10T13:30:36;21.90;95.10
324;DHT22;149;51.094;17.002;2023-05-10T13:33:03;21.90;95.50
324;DHT22;149;51.094;17.002;2023-05-10T13:35:30;22.20;95.20
324;DHT22;149;51.094;17.002;2023-05-10T13:37:57;22.50;93.70
324;DHT22;149;51.094;17.002;2023-05-10T13:40:24;22.50;94.10
324;DHT22;149;51.094;17.002;2023-05-10T13:42:51;22.30;93.20
324;DHT22;149;51.094;17.002;2023-05-10T13:45:19;22.70;93.10
324;DHT22;149;51.094;17.002;2023-05-10T13:47:46;22.80;91.70
324;DHT22;149;51.094;17.002;2023-05-10T13:50:15;22.50;91.90
324;DHT22;149;51.094;17.002;2023-05-10T13:52:42;22.20;93.20
324;DHT22;149;51.094;17.002;2023-05-10T13:55:09;22.30;93.50
324;DHT22;149;51.094;17.002;2023-05-10T14:00:44;22.60;92.80
324;DHT22;149;51.094;17.002;2023-05-10T14:03:11;22.50;91.80
324;DHT22;149;51.094;17.002;2023-05-10T14:05:39;22.60;92.80
324;DHT22;149;51.094;17.002;2023-05-10T14:08:06;22.50;91.60
324;DHT22;149;51.094;17.002;2023-05-10T14:10:34;22.40;93.10
324;DHT22;149;51.094;17.002;2023-05-10T14:13:00;22.00;92.30
324;DHT22;149;51.094;17.002;2023-05-10T14:15:27;21.80;93.50
324;DHT22;149;51.094;17.002;2023-05-10T14:17:54;21.80;92.90
324;DHT22;149;51.094;17.002;2023-05-10T14:20:21;22.00;92.80
324;DHT22;149;51.094;17.002;2023-05-10T14:22:49;21.80;92.50
324;DHT22;149;51.094;17.002;2023-05-10T14:25:16;21.60;93.30
324;DHT22;149;51.094;17.002;2023-05-10T14:27:43;21.50;93.80
324;DHT22;149;51.094;17.002;2023-05-10T14:30:10;21.60;93.30
324;DHT22;149;51.094;17.002;2023-05-10T14:32:37;21.70;93.30
324;DHT22;149;51.094;17.002;2023-05-10T14:35:05;21.70;93.30
324;DHT22;149;51.094;17.002;2023-05-10T14:37:32;21.70;93.70
324;DHT22;149;51.094;17.002;2023-05-10T14:39:59;21.70;93.50
324;DHT22;149;51.094;17.002;2023-05-10T14:42:26;21.80;92.90
324;DHT22;149;51.094;17.002;2023-05-10T14:44:53;21.50;93.50
324;DHT22;149;51.094;17.002;2023-05-10T14:47:20;21.50;93.90
324;DHT22;149;51.094;17.002;2023-05-10T14:49:47;21.60;94.20
324;DHT22;149;51.094;17.002;2023-05-10T14:55:40;21.60;95.00
324;DHT22;149;51.094;17.002;2023-05-10T14:58:08;21.60;93.70
324;DHT22;149;51.094;17.002;2023-05-10T15:00:36;21.70;93.30
324;DHT22;149;51.094;17.002;2023-05-10T15:03:04;21.60;92.60
324;DHT22;149;51.094;17.002;2023-05-10T15:05:32;21.60;92.70
324;DHT22;149;51.094;17.002;2023-05-10T15:07:59;21.70;92.20
324;DHT22;149;51.094;17.002;2023-05-10T15:10:27;21.50;93.20
324;DHT22;149;51.094;17.002;2023-05-10T15:12:54;21.50;93.50
324;DHT22;149;51.094;17.002;2023-05-10T15:15:21;21.50;94.40
324;DHT22;149;51.094;17.002;2023-05-10T15:17:48;21.50;93.10
324;DHT22;149;51.094;17.002;2023-05-10T15:20:15;21.40;93.20
324;DHT22;149;51.094;17.002;2023-05-10T15:22:43;21.50;93.70
324;DHT22;149;51.094;17.002;2023-05-10T15:25:10;21.30;93.20
324;DHT22;149;51.094;17.002;2023-05-10T15:27:37;21.40;93.80
324;DHT22;149;51.094;17.002;2023-05-10T15:30:04;21.60;94.20
324;DHT22;149;51.094;17.002;2023-05-10T15:32:31;21.60;93.60
324;DHT22;149;51.094;17.002;2023-05-10T15:34:59;21.60;93.50
324;DHT22;149;51.094;17.002;2023-05-10T15:37:26;21.80;93.00
324;DHT22;149;51.094;17.002;2023-05-10T15:39:54;21.70;92.30
324;DHT22;149;51.094;17.002;2023-05-10T15:42:27;21.80;92.70
324;DHT22;149;51.094;17.002;2023-05-10T15:44:54;22.00;93.30
324;DHT22;149;51.094;17.002;2023-05-10T15:47:21;22.00;92.90
324;DHT22;149;51.094;17.002;2023-05-10T15:49:48;22.00;93.40
324;DHT22;149;51.094;17.002;2023-05-10T15:52:15;21.80;93.30
324;DHT22;149;51.094;17.002;2023-05-10T15:54:42;21.90;93.00
324;DHT22;149;51.094;17.002;2023-05-10T15:57:09;21.70;92.60
324;DHT22;149;51.094;17.002;2023-05-10T15:59:36;21.60;92.60
324;DHT22;149;51.094;17.002;2023-05-10T16:02:03;21.40;92.70
324;DHT22;149;51.094;17.002;2023-05-10T16:04:30;21.30;93.10
324;DHT22;149;51.094;17.002;2023-05-10T16:06:57;21.20;93.20
324;DHT22;149;51.094;17.002;2023-05-10T16:09:24;21.10;93.00
324;DHT22;149;51.094;17.002;2023-05-10T16:11:51;21.10;93.80
324;DHT22;149;51.094;17.002;2023-05-10T16:14:18;21.10;94.00
324;DHT22;149;51.094;17.002;2023-05-10T16:16:46;20.90;94.90
324;DHT22;149;51.094;17.002;2023-05-10T16:19:14;20.70;95.30
324;DHT22;149;51.094;17.002;2023-05-10T16:21:42;20.80;95.70
324;DHT22;149;51.094;17.002;2023-05-10T16:24:08;20.80;96.30
324;DHT22;149;51.094;17.002;2023-05-10T16:26:35;20.90;96.10
324;DHT22;149;51.094;17.002;2023-05-10T16:29:09;20.80;95.20
324;DHT22;149;51.094;17.002;2023-05-10T16:31:36;20.80;95.20
324;DHT22;149;51.094;17.002;2023-05-10T16:34:04;20.70;95.50
324;DHT22;149;51.094;17.002;2023-05-10T16:36:31;20.70;95.30
324;DHT22;149;51.094;17.002;2023-05-10T16:38:59;20.70;95.30
324;DHT22;149;51.094;17.002;2023-05-10T16:41:26;20.80;95.80
324;DHT22;149;51.094;17.002;2023-05-10T16:43:54;20.70;95.00
324;DHT22;149;51.094;17.002;2023-05-10T16:46:20;20.70;95.10
324;DHT22;149;51.094;17.002;2023-05-10T16:48:47;20.60;95.40
324;DHT22;149;51.094;17.002;2023-05-10T16:51:15;20.60;95.90
324;DHT22;149;51.094;17.002;2023-05-10T16:53:43;20.50;96.40
324;DHT22;149;51.094;17.002;2023-05-10T16:56:10;20.50;96.50
324;DHT22;149;51.094;17.002;2023-05-10T16:58:39;20.60;97.30
324;DHT22;149;51.094;17.002;2023-05-10T17:01:06;20.70;97.00
324;DHT22;149;51.094;17.002;2023-05-10T17:03:33;20.60;96.50
324;DHT22;149;51.094;17.002;2023-05-10T17:06:01;20.60;97.40
324;DHT22;149;51.094;17.002;2023-05-10T17:08:27;20.60;97.10
324;DHT22;149;51.094;17.002;2023-05-10T17:10:55;20.30;97.90